KORF/ORF METAR and TAF weather

Enter ICAO airport designator
Station Type Date Time Source
KORF METAR 2019/08/25 19:51 UTC NOAA

KORF 251951Z 05012G19KT 10SM OVC065 25/18 A3009 RMK AO2 SLP188 T02500183


Station Type Date Time Source
KORF Decoded METAR 2019/08/25 19:51 UTC NOAA

Station name not available
Aug 25, 2019 - 03:51 PM EDT / 2019.08.25 1951 UTC
Wind: from the NE (050 degrees) at 14 MPH (12 KT) gusting to 22 MPH (19 KT):0
Visibility: 10 mile(s):0
Sky conditions: overcast
Temperature: 77.0 F (25.0 C)
Dew Point: 64.9 F (18.3 C)
Relative Humidity: 66%
Pressure (altimeter): 30.09 in. Hg (1018 hPa)
ob: KORF 251951Z 05012G19KT 10SM OVC065 25/18 A3009 RMK AO2 SLP188 T02500183
cycle: 20

Station Type Date Time Source
KORF TAF 2019/08/25 20:05 UTC NOAA

TAF
AMD KORF 252005Z 2520/2618 04014G22KT P6SM SCT050 BKN090
FM260400 02012G20KT P6SM SCT015 BKN050
FM261000 03012G20KT P6SM VCSH SCT015 BKN040
FM261500 04012G20KT P6SM BKN040

Example: see airport list